createdAt,value
2022-09-12T00:09:58.974Z,27.42
2022-09-12T00:30:00.803Z,23.17
2022-09-12T00:50:02.666Z,21.42
2022-09-12T01:10:23.578Z,26.88
2022-09-12T01:30:44.249Z,23.00
2022-09-12T02:11:26.027Z,12.13
2022-09-12T02:52:06.689Z,14.40
2022-09-12T03:12:27.476Z,12.88
2022-09-12T03:32:29.770Z,14.93
2022-09-12T03:52:32.933Z,14.18
2022-09-12T04:12:34.777Z,10.88
2022-09-12T04:32:36.748Z,14.98
2022-09-12T04:52:38.810Z,13.20
2022-09-12T05:12:45.383Z,11.45
2022-09-12T05:32:47.289Z,9.15
2022-09-12T05:52:49.381Z,9.20
2022-09-12T06:12:51.580Z,8.20
2022-09-12T06:33:13.906Z,9.05
2022-09-12T06:53:23.223Z,10.80
2022-09-12T07:55:32.091Z,10.53
2022-09-12T08:15:35.605Z,8.73
2022-09-12T08:35:42.881Z,7.90
2022-09-12T08:55:44.671Z,8.68
2022-09-12T09:15:57.092Z,9.70
2022-09-12T09:36:11.432Z,9.45
2022-09-12T09:56:13.822Z,8.68
2022-09-12T10:16:24.839Z,6.53
2022-09-12T10:36:34.176Z,5.88
2022-09-12T10:56:41.428Z,5.85
2022-09-12T11:16:43.501Z,4.63
2022-09-12T11:36:45.497Z,4.15
2022-09-12T11:56:47.673Z,4.72
2022-09-12T12:17:14.195Z,4.18
2022-09-12T12:37:18.296Z,4.80
2022-09-12T12:57:24.519Z,4.47
2022-09-12T13:17:26.314Z,5.20
2022-09-12T13:37:28.172Z,4.15
2022-09-12T13:57:29.972Z,3.95
2022-09-12T14:17:31.812Z,4.82
2022-09-12T14:37:54.174Z,4.80
2022-09-12T14:58:15.733Z,4.53
2022-09-12T15:18:36.158Z,3.95
2022-09-12T15:38:56.578Z,3.67
2022-09-12T15:59:17.153Z,3.30
2022-09-12T16:19:37.722Z,3.88
2022-09-12T16:39:58.657Z,5.47
2022-09-12T17:00:01.071Z,3.90
2022-09-12T17:20:02.830Z,4.13
2022-09-12T17:40:05.030Z,3.92
2022-09-12T18:00:06.862Z,3.78
2022-09-12T18:20:13.361Z,3.90
2022-09-12T18:40:18.697Z,5.22
2022-09-12T19:00:21.371Z,3.67
2022-09-12T19:20:23.350Z,3.65
2022-09-12T19:40:25.300Z,3.85
2022-09-12T20:00:27.117Z,3.83
2022-09-12T20:20:30.746Z,3.60
2022-09-12T20:40:33.075Z,3.08
2022-09-12T21:00:35.083Z,3.22
2022-09-12T21:20:36.789Z,4.53
2022-09-12T21:40:38.731Z,4.90
2022-09-12T22:00:40.225Z,3.10
2022-09-12T22:20:42.959Z,5.25
2022-09-12T22:40:44.412Z,2.88
2022-09-12T23:00:46.571Z,3.92
2022-09-12T23:20:48.200Z,5.50
2022-09-12T23:40:50.544Z,4.35
